createdAt,value
2023-04-09T00:00:04.502Z,16.28
2023-04-09T00:02:39.830Z,16.29
2023-04-09T00:05:08.453Z,16.31
2023-04-09T00:07:35.766Z,16.31
2023-04-09T00:10:02.832Z,16.31
2023-04-09T00:12:29.784Z,16.35
2023-04-09T00:14:58.295Z,16.38
2023-04-09T00:17:25.629Z,16.36
2023-04-09T00:19:52.793Z,16.40
2023-04-09T00:22:20.375Z,16.44
2023-04-09T00:24:47.572Z,16.47
2023-04-09T00:27:15.051Z,16.53
2023-04-09T00:29:42.971Z,16.56
2023-04-09T00:32:11.505Z,16.63
2023-04-09T00:34:38.440Z,16.62
2023-04-09T00:37:06.997Z,16.62
2023-04-09T00:39:34.153Z,16.53
2023-04-09T00:42:02.386Z,16.45
2023-04-09T00:44:30.321Z,16.40
2023-04-09T00:46:59.601Z,16.34
2023-04-09T00:49:28.218Z,16.31
2023-04-09T00:51:55.577Z,16.28
2023-04-09T00:54:22.957Z,16.21
2023-04-09T00:56:50.973Z,16.20
2023-04-09T00:59:18.620Z,16.22
2023-04-09T01:01:45.706Z,16.28
2023-04-09T01:04:13.255Z,16.32
2023-04-09T01:06:51.490Z,16.35
2023-04-09T01:09:27.969Z,16.38
2023-04-09T01:12:07.868Z,16.38
2023-04-09T01:14:45.409Z,16.34
2023-04-09T01:17:21.222Z,16.40
2023-04-09T01:19:58.595Z,16.45
2023-04-09T01:22:45.540Z,16.49
2023-04-09T01:25:37.431Z,16.51
2023-04-09T01:28:17.404Z,16.53
2023-04-09T01:30:49.246Z,16.56
2023-04-09T01:33:19.792Z,16.56
2023-04-09T01:35:49.596Z,16.55
2023-04-09T01:38:20.801Z,16.56
2023-04-09T01:40:49.746Z,16.56
2023-04-09T01:43:19.220Z,16.61
2023-04-09T01:45:48.284Z,16.66
2023-04-09T01:48:16.979Z,16.72
2023-04-09T01:50:44.956Z,16.75
2023-04-09T01:53:12.803Z,16.75
2023-04-09T01:55:40.008Z,16.76
2023-04-09T01:58:07.007Z,16.76
2023-04-09T02:00:40.117Z,16.79
2023-04-09T02:03:13.361Z,16.77
2023-04-09T02:05:56.237Z,16.79
2023-04-09T02:08:53.856Z,16.83
2023-04-09T02:11:26.868Z,16.75
2023-04-09T02:13:56.884Z,16.73
2023-04-09T02:16:28.399Z,16.72
2023-04-09T02:18:55.745Z,16.69
2023-04-09T02:21:23.945Z,16.66
2023-04-09T02:23:50.924Z,16.61
2023-04-09T02:26:18.571Z,16.52
2023-04-09T02:28:45.767Z,16.42
2023-04-09T02:31:13.435Z,16.25
2023-04-09T02:33:42.100Z,16.18
2023-04-09T02:36:12.169Z,16.10
2023-04-09T02:38:41.744Z,16.07
2023-04-09T02:44:06.136Z,16.02
2023-04-09T02:46:33.856Z,16.04
2023-04-09T02:49:02.335Z,16.05
2023-04-09T02:51:29.441Z,16.02
2023-04-09T02:53:56.304Z,16.07
2023-04-09T02:56:23.392Z,16.14
2023-04-09T02:58:50.708Z,16.20
2023-04-09T03:01:18.052Z,16.26
2023-04-09T03:03:48.260Z,16.34
2023-04-09T03:06:19.083Z,16.38
2023-04-09T03:08:46.213Z,16.45
2023-04-09T03:11:13.138Z,16.49
2023-04-09T03:13:40.187Z,16.49
2023-04-09T03:16:10.731Z,16.51
2023-04-09T03:18:38.090Z,16.53
2023-04-09T03:21:06.378Z,16.59
2023-04-09T03:23:37.473Z,16.66
2023-04-09T03:26:13.668Z,16.66
2023-04-09T03:28:46.767Z,16.69
2023-04-09T03:31:13.803Z,16.75
2023-04-09T03:33:42.576Z,16.76
2023-04-09T03:36:10.415Z,16.79
2023-04-09T03:39:00.972Z,16.83
2023-04-09T03:41:33.206Z,16.85
2023-04-09T03:44:04.793Z,16.82
2023-04-09T03:46:39.631Z,16.77
2023-04-09T03:49:16.237Z,16.82
2023-04-09T03:51:44.809Z,16.83
2023-04-09T03:54:13.951Z,16.80
2023-04-09T03:56:41.878Z,16.77
2023-04-09T03:59:12.351Z,16.75
2023-04-09T04:01:42.504Z,16.72
2023-04-09T04:04:10.259Z,16.72
2023-04-09T04:06:43.826Z,16.73
2023-04-09T04:09:26.510Z,16.65
2023-04-09T04:12:15.099Z,16.59
2023-04-09T04:15:04.309Z,16.58
2023-04-09T04:17:37.086Z,16.59
2023-04-09T04:20:09.655Z,16.61
2023-04-09T04:22:48.715Z,16.55
2023-04-09T04:25:17.963Z,16.49
2023-04-09T04:27:46.743Z,16.49
2023-04-09T04:30:15.721Z,16.49
2023-04-09T04:32:55.778Z,16.49
2023-04-09T04:35:23.363Z,16.51
2023-04-09T04:37:54.988Z,16.49
2023-04-09T04:40:24.749Z,16.47
2023-04-09T04:43:00.369Z,16.44
2023-04-09T04:45:30.187Z,16.48
2023-04-09T04:48:05.417Z,16.47
2023-04-09T04:50:32.325Z,16.47
2023-04-09T04:53:03.843Z,16.41
2023-04-09T04:55:44.342Z,16.34
2023-04-09T04:58:20.914Z,16.31
2023-04-09T05:00:57.816Z,16.31
2023-04-09T05:03:27.366Z,16.25
2023-04-09T05:06:18.371Z,16.24
2023-04-09T05:08:46.140Z,16.28
2023-04-09T05:11:15.151Z,16.35
2023-04-09T05:13:48.358Z,16.31
2023-04-09T05:16:19.271Z,16.31
2023-04-09T05:18:52.307Z,16.25
2023-04-09T05:21:19.462Z,16.25
2023-04-09T05:23:50.184Z,16.18
2023-04-09T05:26:19.257Z,16.18
2023-04-09T05:28:56.710Z,16.15
2023-04-09T05:31:35.089Z,16.18
2023-04-09T05:34:06.692Z,16.26
2023-04-09T05:36:41.483Z,16.34
2023-04-09T05:39:09.012Z,16.47
2023-04-09T05:41:37.820Z,16.53
2023-04-09T05:44:25.495Z,16.56
2023-04-09T05:46:59.476Z,16.65
2023-04-09T05:49:33.289Z,16.72
2023-04-09T05:52:05.193Z,16.73
2023-04-09T05:54:32.819Z,16.77
2023-04-09T05:57:01.483Z,16.85
2023-04-09T05:59:30.606Z,16.90
2023-04-09T06:01:57.754Z,16.93
2023-04-09T06:04:25.310Z,16.96
2023-04-09T06:06:53.453Z,16.99
2023-04-09T06:09:20.769Z,17.02
2023-04-09T06:11:48.798Z,17.04
2023-04-09T06:14:17.277Z,17.06
2023-04-09T06:16:44.327Z,17.06
2023-04-09T06:19:11.959Z,17.04
2023-04-09T06:21:39.083Z,17.03
2023-04-09T06:24:06.888Z,17.04
2023-04-09T06:29:26.574Z,17.04
2023-04-09T06:31:53.538Z,17.02
2023-04-09T06:34:20.924Z,16.92
2023-04-09T06:36:47.939Z,16.89
2023-04-09T06:39:14.878Z,16.87
2023-04-09T06:41:42.526Z,16.86
2023-04-09T06:44:24.013Z,16.92
2023-04-09T06:46:52.651Z,16.97
2023-04-09T06:49:19.551Z,17.02
2023-04-09T06:51:46.412Z,17.06
2023-04-09T06:54:13.583Z,17.17
2023-04-09T06:56:40.442Z,17.24
2023-04-09T06:59:07.822Z,17.31
2023-04-09T07:01:34.880Z,17.28
2023-04-09T07:04:03.726Z,17.22
2023-04-09T07:06:30.661Z,17.13
2023-04-09T07:08:58.037Z,17.04
2023-04-09T07:11:24.985Z,17.04
2023-04-09T07:13:52.496Z,17.07
2023-04-09T07:16:19.934Z,17.02
2023-04-09T07:18:46.824Z,16.94
2023-04-09T07:21:15.098Z,16.94
2023-04-09T07:23:42.059Z,16.86
2023-04-09T07:26:09.929Z,16.89
2023-04-09T07:28:37.057Z,16.80
2023-04-09T07:31:04.162Z,16.77
2023-04-09T07:33:31.527Z,16.80
2023-04-09T07:35:58.405Z,16.90
2023-04-09T07:38:29.043Z,16.99
2023-04-09T07:40:55.983Z,17.06
2023-04-09T07:43:23.061Z,17.13
2023-04-09T07:45:50.089Z,17.20
2023-04-09T07:48:17.231Z,17.24
2023-04-09T07:50:44.168Z,17.16
2023-04-09T07:53:11.228Z,17.17
2023-04-09T07:55:40.436Z,17.22
2023-04-09T07:58:08.516Z,17.19
2023-04-09T08:00:35.701Z,17.17
2023-04-09T08:03:03.161Z,17.17
2023-04-09T08:05:30.539Z,17.20
2023-04-09T08:07:57.617Z,17.31
2023-04-09T08:10:24.687Z,17.37
2023-04-09T08:12:53.400Z,17.45
2023-04-09T08:15:20.965Z,17.47
2023-04-09T08:17:47.921Z,17.47
2023-04-09T08:20:15.086Z,17.58
2023-04-09T08:22:41.959Z,17.71
2023-04-09T08:25:09.083Z,17.79
2023-04-09T08:27:36.153Z,17.84
2023-04-09T08:30:06.256Z,17.88
2023-04-09T08:32:33.232Z,17.94
2023-04-09T08:35:00.263Z,18.10
2023-04-09T08:37:27.317Z,18.29
2023-04-09T08:39:54.416Z,18.45
2023-04-09T08:42:24.139Z,18.53
2023-04-09T08:44:51.367Z,18.39
2023-04-09T08:47:20.838Z,18.37
2023-04-09T08:49:47.717Z,18.32
2023-04-09T08:52:14.762Z,18.36
2023-04-09T08:54:41.692Z,18.42
2023-04-09T08:57:08.850Z,18.40
2023-04-09T08:59:35.666Z,18.42
2023-04-09T09:02:09.769Z,18.49
2023-04-09T09:05:03.850Z,18.49
2023-04-09T09:07:34.109Z,18.57
2023-04-09T09:10:02.316Z,18.49
2023-04-09T09:12:38.206Z,18.26
2023-04-09T09:15:25.337Z,18.12
2023-04-09T09:17:55.543Z,18.05
2023-04-09T09:20:25.342Z,18.05
2023-04-09T09:22:55.596Z,18.06
2023-04-09T09:25:22.784Z,18.05
2023-04-09T09:27:50.105Z,17.96
2023-04-09T09:30:25.449Z,17.92
2023-04-09T09:32:54.006Z,17.84
2023-04-09T09:35:21.310Z,17.75
2023-04-09T09:38:02.244Z,17.73
2023-04-09T09:40:29.211Z,17.71
2023-04-09T09:42:57.099Z,17.81
2023-04-09T09:45:25.357Z,17.95
2023-04-09T09:47:52.855Z,18.10
2023-04-09T09:50:24.043Z,18.13
2023-04-09T09:53:01.305Z,18.18
2023-04-09T09:55:32.185Z,18.21
2023-04-09T09:58:02.969Z,18.36
2023-04-09T10:00:33.036Z,18.52
2023-04-09T10:03:14.825Z,18.66
2023-04-09T10:05:42.291Z,18.67
2023-04-09T10:08:12.189Z,18.77
2023-04-09T10:10:41.630Z,18.93
2023-04-09T10:13:15.762Z,19.07
2023-04-09T10:15:44.852Z,19.14
2023-04-09T10:18:12.170Z,19.11
2023-04-09T10:20:49.219Z,19.11
2023-04-09T10:23:32.451Z,19.15
2023-04-09T10:25:59.409Z,19.11
2023-04-09T10:28:26.483Z,19.12
2023-04-09T10:30:54.170Z,19.15
2023-04-09T10:33:24.580Z,18.91
2023-04-09T10:35:52.442Z,18.90
2023-04-09T10:38:34.614Z,18.94
2023-04-09T10:41:13.767Z,18.97
2023-04-09T10:44:07.012Z,19.00
2023-04-09T10:46:36.418Z,18.93
2023-04-09T10:49:11.705Z,18.91
2023-04-09T10:51:40.001Z,18.84
2023-04-09T10:54:39.325Z,18.97
2023-04-09T10:57:18.931Z,18.96
2023-04-09T10:59:49.446Z,18.87
2023-04-09T11:03:21.091Z,19.11
2023-04-09T11:05:53.712Z,19.00
2023-04-09T11:08:21.160Z,18.97
2023-04-09T11:10:51.974Z,18.93
2023-04-09T11:13:19.600Z,18.90
2023-04-09T11:15:46.555Z,18.90
2023-04-09T11:18:21.033Z,18.94
2023-04-09T11:20:48.322Z,18.97
2023-04-09T11:23:17.469Z,18.96
2023-04-09T11:25:51.322Z,19.03
2023-04-09T11:28:21.319Z,19.18
2023-04-09T11:30:51.224Z,19.38
2023-04-09T11:33:19.995Z,19.48
2023-04-09T11:35:47.784Z,19.38
2023-04-09T11:38:14.901Z,19.15
2023-04-09T11:40:43.406Z,19.04
2023-04-09T11:43:12.679Z,19.01
2023-04-09T11:45:39.533Z,19.00
2023-04-09T11:48:07.249Z,19.06
2023-04-09T11:50:35.126Z,19.12
2023-04-09T11:53:16.718Z,19.21
2023-04-09T11:55:47.394Z,19.27
2023-04-09T11:58:15.752Z,19.38
2023-04-09T12:00:42.829Z,19.31
2023-04-09T12:03:10.826Z,19.38
2023-04-09T12:05:42.086Z,19.52
2023-04-09T12:08:10.427Z,19.63
2023-04-09T12:10:38.926Z,19.59
2023-04-09T12:13:08.212Z,19.45
2023-04-09T12:15:38.241Z,19.47
2023-04-09T12:18:10.038Z,19.58
2023-04-09T12:20:39.252Z,19.59
2023-04-09T12:23:07.603Z,19.51
2023-04-09T12:25:37.408Z,19.42
2023-04-09T12:28:05.720Z,19.41
2023-04-09T12:30:32.913Z,19.44
2023-04-09T12:33:03.287Z,19.41
2023-04-09T12:35:30.896Z,19.42
2023-04-09T12:37:58.000Z,19.36
2023-04-09T12:40:25.230Z,19.47
2023-04-09T12:42:52.202Z,19.47
2023-04-09T12:45:20.021Z,19.36
2023-04-09T12:47:47.224Z,19.35
2023-04-09T12:50:16.419Z,19.35
2023-04-09T12:52:44.292Z,19.38
2023-04-09T12:55:12.751Z,19.52
2023-04-09T12:57:42.630Z,19.75
2023-04-09T13:00:11.290Z,19.99
2023-04-09T13:02:38.371Z,20.20
2023-04-09T13:05:06.293Z,20.33
2023-04-09T13:07:34.871Z,20.48
2023-04-09T13:10:02.045Z,20.70
2023-04-09T13:12:28.904Z,20.90
2023-04-09T13:14:55.996Z,20.98
2023-04-09T13:17:23.321Z,21.08
2023-04-09T13:19:51.084Z,21.16
2023-04-09T13:22:18.959Z,21.18
2023-04-09T13:24:47.327Z,21.18
2023-04-09T13:27:14.844Z,21.19
2023-04-09T13:29:42.113Z,21.25
2023-04-09T13:32:09.045Z,21.39
2023-04-09T13:34:36.028Z,21.56
2023-04-09T13:37:03.391Z,21.76
2023-04-09T13:39:30.999Z,21.73
2023-04-09T13:42:00.053Z,21.70
2023-04-09T13:44:27.072Z,21.62
2023-04-09T13:46:54.014Z,21.64
2023-04-09T13:49:21.198Z,21.59
2023-04-09T13:51:49.462Z,21.56
2023-04-09T13:54:18.675Z,21.41
2023-04-09T13:56:45.742Z,21.26
2023-04-09T13:59:14.087Z,21.21
2023-04-09T14:01:41.092Z,21.21
2023-04-09T14:04:08.384Z,21.41
2023-04-09T14:06:35.351Z,21.59
2023-04-09T14:09:02.329Z,21.62
2023-04-09T14:11:29.482Z,21.76
2023-04-09T14:13:56.640Z,21.94
2023-04-09T14:16:25.316Z,22.08
2023-04-09T14:18:52.465Z,22.41
2023-04-09T14:21:19.662Z,23.07
2023-04-09T14:24:11.565Z,23.40
2023-04-09T14:26:44.778Z,23.31
2023-04-09T14:29:12.168Z,23.34
2023-04-09T14:31:40.713Z,23.56
2023-04-09T14:34:07.898Z,23.81
2023-04-09T14:36:34.735Z,23.63
2023-04-09T14:39:02.023Z,23.74
2023-04-09T14:41:28.991Z,23.87
2023-04-09T14:43:56.590Z,23.74
2023-04-09T14:46:23.466Z,23.89
2023-04-09T14:48:52.142Z,24.16
2023-04-09T14:51:19.320Z,24.26
2023-04-09T14:53:46.284Z,24.15
2023-04-09T14:56:13.253Z,24.26
2023-04-09T14:58:40.132Z,24.26
2023-04-09T15:01:07.399Z,24.46
2023-04-09T15:03:35.038Z,24.66
2023-04-09T15:06:04.864Z,24.76
2023-04-09T15:08:31.751Z,24.86
2023-04-09T15:10:59.035Z,25.03
2023-04-09T15:13:26.250Z,25.10
2023-04-09T15:15:53.278Z,24.87
2023-04-09T15:18:21.732Z,24.40
2023-04-09T15:20:49.348Z,24.11
2023-04-09T15:23:17.756Z,24.07
2023-04-09T15:25:44.780Z,24.11
2023-04-09T15:28:11.876Z,24.00
2023-04-09T15:30:38.800Z,23.97
2023-04-09T15:33:05.738Z,23.97
2023-04-09T15:35:34.376Z,23.88
2023-04-09T15:38:01.926Z,23.79
2023-04-09T15:40:30.347Z,23.71
2023-04-09T15:42:57.181Z,23.54
2023-04-09T15:45:24.250Z,23.34
2023-04-09T15:47:51.081Z,23.06
2023-04-09T15:50:18.218Z,22.96
2023-04-09T15:52:45.040Z,22.92
2023-04-09T15:55:12.326Z,22.92
2023-04-09T15:57:40.540Z,22.75
2023-04-09T16:00:08.776Z,22.65
2023-04-09T16:02:35.704Z,22.51
2023-04-09T16:05:02.719Z,22.41
2023-04-09T16:07:29.916Z,22.11
2023-04-09T16:09:57.934Z,22.04
2023-04-09T16:12:24.922Z,21.93
2023-04-09T16:14:53.477Z,21.87
2023-04-09T16:17:20.659Z,21.83
2023-04-09T16:19:47.518Z,21.90
2023-04-09T16:22:14.691Z,22.04
2023-04-09T16:24:41.610Z,22.13
2023-04-09T16:27:08.611Z,22.24
2023-04-09T16:29:35.429Z,22.25
2023-04-09T16:32:04.313Z,22.31
2023-04-09T16:34:31.265Z,22.18
2023-04-09T16:37:23.713Z,22.03
2023-04-09T16:39:50.671Z,21.94
2023-04-09T16:42:17.795Z,21.69
2023-04-09T16:44:44.754Z,21.54
2023-04-09T16:47:13.215Z,21.32
2023-04-09T16:49:40.037Z,21.23
2023-04-09T16:52:07.113Z,21.12
2023-04-09T16:54:34.021Z,21.09
2023-04-09T16:57:00.938Z,21.06
2023-04-09T16:59:27.806Z,21.06
2023-04-09T17:01:54.933Z,21.05
2023-04-09T17:04:23.546Z,21.03
2023-04-09T17:06:50.766Z,20.91
2023-04-09T17:09:18.141Z,20.78
2023-04-09T17:11:45.269Z,20.63
2023-04-09T17:14:12.119Z,20.51
2023-04-09T17:16:39.274Z,20.43
2023-04-09T17:19:06.124Z,20.40
2023-04-09T17:21:34.967Z,20.34
2023-04-09T17:24:02.210Z,20.26
2023-04-09T17:26:29.402Z,20.10
2023-04-09T17:28:56.509Z,19.96
2023-04-09T17:31:23.558Z,19.76
2023-04-09T17:33:51.935Z,19.52
2023-04-09T17:36:20.042Z,19.31
2023-04-09T17:38:50.010Z,19.12
2023-04-09T17:41:16.916Z,18.93
2023-04-09T17:43:49.433Z,18.87
2023-04-09T17:46:17.865Z,18.78
2023-04-09T17:48:45.079Z,18.70
2023-04-09T17:51:14.092Z,18.61
2023-04-09T17:53:40.940Z,18.55
2023-04-09T17:56:14.959Z,18.50
2023-04-09T17:58:42.119Z,18.45
2023-04-09T18:01:09.316Z,18.37
2023-04-09T18:03:36.524Z,18.40
2023-04-09T18:06:04.160Z,18.33
2023-04-09T18:08:31.154Z,18.22
2023-04-09T18:11:11.460Z,18.16
2023-04-09T18:13:41.582Z,18.09
2023-04-09T18:16:09.574Z,18.02
2023-04-09T18:18:36.496Z,17.96
2023-04-09T18:21:03.827Z,17.91
2023-04-09T18:23:30.808Z,17.86
2023-04-09T18:25:57.689Z,17.81
2023-04-09T18:28:25.094Z,17.71
2023-04-09T18:30:53.426Z,17.65
2023-04-09T18:33:20.768Z,17.60
2023-04-09T18:35:47.667Z,17.50
2023-04-09T18:38:14.575Z,17.45
2023-04-09T18:40:43.120Z,17.47
2023-04-09T18:43:11.286Z,17.40
2023-04-09T18:45:39.132Z,17.37
2023-04-09T18:48:07.417Z,17.36
2023-04-09T18:50:34.386Z,17.31
2023-04-09T18:53:01.263Z,17.33
2023-04-09T18:55:28.320Z,17.31
2023-04-09T18:57:55.385Z,17.24
2023-04-09T19:00:22.251Z,17.19
2023-04-09T19:02:49.355Z,17.12
2023-04-09T19:05:18.397Z,17.13
2023-04-09T19:07:45.256Z,17.07
2023-04-09T19:10:13.553Z,17.04
2023-04-09T19:12:40.506Z,17.06
2023-04-09T19:15:09.258Z,17.10
2023-04-09T19:17:36.102Z,17.07
2023-04-09T19:20:03.477Z,17.09
2023-04-09T19:22:31.705Z,17.12
2023-04-09T19:24:58.727Z,17.10
2023-04-09T19:27:25.685Z,17.07
2023-04-09T19:29:52.661Z,17.07
2023-04-09T19:32:19.600Z,17.02
2023-04-09T19:34:46.541Z,17.00
2023-04-09T19:37:13.616Z,16.97
2023-04-09T19:39:42.062Z,16.94
2023-04-09T19:42:09.150Z,16.89
2023-04-09T19:44:36.042Z,16.82
2023-04-09T19:47:03.194Z,16.68
2023-04-09T19:52:26.695Z,16.42
2023-04-09T19:54:55.742Z,16.40
2023-04-09T19:57:23.370Z,16.34
2023-04-09T19:59:50.298Z,16.32
2023-04-09T20:05:09.756Z,16.29
2023-04-09T20:07:36.758Z,16.32
2023-04-09T20:10:06.819Z,16.38
2023-04-09T20:12:34.455Z,16.36
2023-04-09T20:15:02.334Z,16.36
2023-04-09T20:17:29.263Z,16.35
2023-04-09T20:19:56.532Z,16.31
2023-04-09T20:22:23.749Z,16.24
2023-04-09T20:24:51.141Z,16.12
2023-04-09T20:27:19.828Z,16.07
2023-04-09T20:29:47.275Z,16.04
2023-04-09T20:32:14.203Z,15.98
2023-04-09T20:34:41.337Z,15.93
2023-04-09T20:37:08.268Z,15.89
2023-04-09T20:39:35.302Z,15.87
2023-04-09T20:42:02.638Z,15.80
2023-04-09T20:44:31.148Z,15.80
2023-04-09T20:46:57.968Z,15.74
2023-04-09T20:49:24.945Z,15.71
2023-04-09T20:51:51.832Z,15.67
2023-04-09T20:54:18.803Z,15.57
2023-04-09T20:56:46.020Z,15.59
2023-04-09T20:59:12.919Z,15.56
2023-04-09T21:01:41.371Z,15.61
2023-04-09T21:04:08.516Z,15.57
2023-04-09T21:06:35.606Z,15.61
2023-04-09T21:09:02.505Z,15.64
2023-04-09T21:11:29.657Z,15.64
2023-04-09T21:13:58.135Z,15.60
2023-04-09T21:16:25.228Z,15.59
2023-04-09T21:18:58.805Z,15.59
2023-04-09T21:21:25.990Z,15.50
2023-04-09T21:23:52.892Z,15.53
2023-04-09T21:26:20.145Z,15.50
2023-04-09T21:28:47.139Z,15.43
2023-04-09T21:31:14.111Z,15.43
2023-04-09T21:33:40.979Z,15.43
2023-04-09T21:36:09.356Z,15.43
2023-04-09T21:38:36.278Z,15.39
2023-04-09T21:41:03.253Z,15.40
2023-04-09T21:43:30.219Z,15.38
2023-04-09T21:45:57.578Z,15.32
2023-04-09T21:48:24.502Z,15.28
2023-04-09T21:50:51.640Z,15.25
2023-04-09T21:53:19.904Z,15.22
2023-04-09T21:55:47.275Z,15.16
2023-04-09T21:58:14.122Z,15.09
2023-04-09T22:00:41.110Z,15.05
2023-04-09T22:03:08.257Z,15.02
2023-04-09T22:05:35.444Z,15.01
2023-04-09T22:08:02.751Z,14.91
2023-04-09T22:10:31.543Z,14.88
2023-04-09T22:12:58.385Z,14.84
2023-04-09T22:15:25.462Z,14.81
2023-04-09T22:17:52.884Z,14.82
2023-04-09T22:20:20.276Z,14.82
2023-04-09T22:22:47.137Z,14.84
2023-04-09T22:25:14.264Z,14.81
2023-04-09T22:27:42.652Z,14.79
2023-04-09T22:30:10.129Z,14.81
2023-04-09T22:32:37.129Z,14.81
2023-04-09T22:35:04.659Z,14.78
2023-04-09T22:37:31.808Z,14.82
2023-04-09T22:39:58.679Z,14.79
2023-04-09T22:42:25.886Z,14.78
2023-04-09T22:44:54.551Z,14.78
2023-04-09T22:47:21.392Z,14.78
2023-04-09T22:49:52.370Z,14.77
2023-04-09T22:52:19.736Z,14.74
2023-04-09T22:54:46.535Z,14.72
2023-04-09T22:57:13.649Z,14.67
2023-04-09T22:59:41.035Z,14.58
2023-04-09T23:02:09.865Z,14.64
2023-04-09T23:05:01.930Z,14.58
2023-04-09T23:07:29.086Z,14.58
2023-04-09T23:09:55.936Z,14.57
2023-04-09T23:12:23.055Z,14.54
2023-04-09T23:14:50.173Z,14.54
2023-04-09T23:17:18.436Z,14.52
2023-04-09T23:19:45.461Z,14.44
2023-04-09T23:22:12.757Z,14.45
2023-04-09T23:24:39.798Z,14.52
2023-04-09T23:27:06.637Z,14.58
2023-04-09T23:29:33.722Z,14.60
2023-04-09T23:32:00.664Z,14.63
2023-04-09T23:34:29.228Z,14.71
2023-04-09T23:36:56.354Z,14.75
2023-04-09T23:39:23.295Z,14.81
2023-04-09T23:41:50.503Z,14.88
2023-04-09T23:44:17.375Z,14.91
2023-04-09T23:46:44.877Z,14.95
2023-04-09T23:49:11.757Z,14.95
2023-04-09T23:51:40.102Z,14.95
2023-04-09T23:54:07.122Z,14.98
2023-04-09T23:56:34.228Z,15.01
2023-04-09T23:59:01.193Z,15.01
